sensor_id;sensor_type;location;lat;lon;timestamp;pressure;altitude;pressure_sealevel;temperature;humidity
74372;BME280;62885;51.374;6.170;2023-06-22T00:01:59;101466.78;;;20.83;64.50
74372;BME280;62885;51.374;6.170;2023-06-22T00:04:24;101465.94;;;20.91;64.59
74372;BME280;62885;51.374;6.170;2023-06-22T00:06:50;101467.84;;;20.90;64.69
74372;BME280;62885;51.374;6.170;2023-06-22T00:09:16;101471.97;;;20.69;66.22
74372;BME280;62885;51.374;6.170;2023-06-22T00:11:41;101479.44;;;20.59;66.94
74372;BME280;62885;51.374;6.170;2023-06-22T00:14:06;101478.94;;;20.63;67.25
74372;BME280;62885;51.374;6.170;2023-06-22T00:16:32;101473.34;;;20.65;67.72
74372;BME280;62885;51.374;6.170;2023-06-22T00:18:58;101470.63;;;20.65;68.02
74372;BME280;62885;51.374;6.170;2023-06-22T00:21:28;101459.53;;;20.58;68.27
74372;BME280;62885;51.374;6.170;2023-06-22T00:23:56;101461.09;;;20.69;68.27
74372;BME280;62885;51.374;6.170;2023-06-22T00:26:22;101454.09;;;20.58;69.28
74372;BME280;62885;51.374;6.170;2023-06-22T00:28:48;101448.88;;;20.39;70.66
74372;BME280;62885;51.374;6.170;2023-06-22T00:31:14;101449.16;;;20.62;70.28
74372;BME280;62885;51.374;6.170;2023-06-22T00:33:39;101453.22;;;20.58;70.69
74372;BME280;62885;51.374;6.170;2023-06-22T00:36:05;101453.22;;;20.49;71.73
74372;BME280;62885;51.374;6.170;2023-06-22T00:38:32;101445.06;;;20.58;71.41
74372;BME280;62885;51.374;6.170;2023-06-22T00:40:58;101461.94;;;20.61;71.34
74372;BME280;62885;51.374;6.170;2023-06-22T00:43:23;101463.03;;;20.42;72.67
74372;BME280;62885;51.374;6.170;2023-06-22T00:45:49;101458.59;;;20.41;72.96
74372;BME280;62885;51.374;6.170;2023-06-22T00:48:14;101457.09;;;20.47;72.84
74372;BME280;62885;51.374;6.170;2023-06-22T00:50:40;101455.38;;;20.38;73.09
74372;BME280;62885;51.374;6.170;2023-06-22T00:53:07;101448.81;;;20.31;74.04
74372;BME280;62885;51.374;6.170;2023-06-22T00:55:44;101446.66;;;20.34;74.04
74372;BME280;62885;51.374;6.170;2023-06-22T00:58:12;101446.50;;;20.36;74.23
74372;BME280;62885;51.374;6.170;2023-06-22T01:00:41;101448.22;;;20.37;74.34
74372;BME280;62885;51.374;6.170;2023-06-22T01:03:07;101442.41;;;20.32;74.95
74372;BME280;62885;51.374;6.170;2023-06-22T01:05:34;101442.16;;;20.25;75.62
74372;BME280;62885;51.374;6.170;2023-06-22T01:08:29;101454.75;;;20.26;75.71
74372;BME280;62885;51.374;6.170;2023-06-22T01:14:06;101443.94;;;20.34;76.16
74372;BME280;62885;51.374;6.170;2023-06-22T01:16:37;101438.91;;;20.47;75.28
74372;BME280;62885;51.374;6.170;2023-06-22T01:19:37;101443.78;;;20.36;76.06
74372;BME280;62885;51.374;6.170;2023-06-22T01:22:05;101438.09;;;20.29;76.49
74372;BME280;62885;51.374;6.170;2023-06-22T01:30:11;101430.53;;;20.41;76.25
74372;BME280;62885;51.374;6.170;2023-06-22T01:32:39;101435.97;;;20.41;76.28
74372;BME280;62885;51.374;6.170;2023-06-22T01:35:07;101425.44;;;20.38;76.65
74372;BME280;62885;51.374;6.170;2023-06-22T01:37:34;101428.16;;;20.38;76.81
74372;BME280;62885;51.374;6.170;2023-06-22T01:40:02;101421.41;;;20.24;77.47
74372;BME280;62885;51.374;6.170;2023-06-22T01:42:30;101421.91;;;20.20;77.25
74372;BME280;62885;51.374;6.170;2023-06-22T01:44:56;101416.13;;;20.23;77.59
74372;BME280;62885;51.374;6.170;2023-06-22T01:47:22;101410.38;;;20.26;77.38
74372;BME280;62885;51.374;6.170;2023-06-22T01:49:49;101415.56;;;20.11;78.28
74372;BME280;62885;51.374;6.170;2023-06-22T01:52:17;101416.41;;;20.12;78.34
74372;BME280;62885;51.374;6.170;2023-06-22T01:54:43;101416.13;;;20.23;78.00
74372;BME280;62885;51.374;6.170;2023-06-22T01:57:08;101421.34;;;20.16;78.24
74372;BME280;62885;51.374;6.170;2023-06-22T01:59:39;101416.41;;;20.12;78.66
74372;BME280;62885;51.374;6.170;2023-06-22T02:02:09;101419.47;;;20.08;79.01
74372;BME280;62885;51.374;6.170;2023-06-22T02:04:51;101420.09;;;20.02;79.14
74372;BME280;62885;51.374;6.170;2023-06-22T02:07:21;101420.13;;;20.10;79.27
74372;BME280;62885;51.374;6.170;2023-06-22T02:09:51;101418.44;;;20.09;78.61
74372;BME280;62885;51.374;6.170;2023-06-22T02:12:22;101415.56;;;20.11;78.99
74372;BME280;62885;51.374;6.170;2023-06-22T02:14:48;101407.09;;;20.14;78.95
74372;BME280;62885;51.374;6.170;2023-06-22T02:17:17;101414.31;;;19.97;79.95
74372;BME280;62885;51.374;6.170;2023-06-22T02:19:42;101408.16;;;19.95;80.33
74372;BME280;62885;51.374;6.170;2023-06-22T02:22:08;101409.50;;;19.91;80.49
74372;BME280;62885;51.374;6.170;2023-06-22T02:24:34;101410.25;;;20.01;79.92
74372;BME280;62885;51.374;6.170;2023-06-22T02:27:01;101414.88;;;19.83;81.35
74372;BME280;62885;51.374;6.170;2023-06-22T02:29:26;101413.22;;;19.90;80.79
74372;BME280;62885;51.374;6.170;2023-06-22T02:31:53;101408.81;;;19.89;81.08
74372;BME280;62885;51.374;6.170;2023-06-22T02:34:19;101400.94;;;19.86;81.18
74372;BME280;62885;51.374;6.170;2023-06-22T02:36:48;101402.50;;;19.89;81.09
74372;BME280;62885;51.374;6.170;2023-06-22T02:39:20;101402.94;;;19.76;81.66
74372;BME280;62885;51.374;6.170;2023-06-22T02:41:50;101397.19;;;19.79;81.66
74372;BME280;62885;51.374;6.170;2023-06-22T02:44:16;101393.97;;;19.84;81.29
74372;BME280;62885;51.374;6.170;2023-06-22T02:46:42;101397.56;;;19.84;81.71
74372;BME280;62885;51.374;6.170;2023-06-22T02:49:07;101394.56;;;19.69;82.42
74372;BME280;62885;51.374;6.170;2023-06-22T02:51:34;101389.13;;;19.69;82.29
74372;BME280;62885;51.374;6.170;2023-06-22T02:54:01;101388.84;;;19.81;81.90
74372;BME280;62885;51.374;6.170;2023-06-22T02:56:28;101387.56;;;19.93;81.19
74372;BME280;62885;51.374;6.170;2023-06-22T02:58:55;101378.69;;;19.83;81.68
74372;BME280;62885;51.374;6.170;2023-06-22T03:01:29;101387.97;;;19.72;82.06
74372;BME280;62885;51.374;6.170;2023-06-22T03:03:58;101381.41;;;19.83;81.60
74372;BME280;62885;51.374;6.170;2023-06-22T03:06:24;101376.31;;;19.80;81.70
74372;BME280;62885;51.374;6.170;2023-06-22T03:08:58;101376.81;;;19.83;81.44
74372;BME280;62885;51.374;6.170;2023-06-22T03:11:24;101374.16;;;19.65;82.61
74372;BME280;62885;51.374;6.170;2023-06-22T03:13:51;101372.41;;;19.56;82.86
74372;BME280;62885;51.374;6.170;2023-06-22T03:16:18;101369.94;;;19.71;82.55
74372;BME280;62885;51.374;6.170;2023-06-22T03:18:44;101358.59;;;19.76;82.29
74372;BME280;62885;51.374;6.170;2023-06-22T03:21:09;101359.34;;;19.60;82.74
74372;BME280;62885;51.374;6.170;2023-06-22T03:23:34;101354.06;;;19.58;83.03
74372;BME280;62885;51.374;6.170;2023-06-22T03:26:01;101354.41;;;19.55;83.42
74372;BME280;62885;51.374;6.170;2023-06-22T03:28:26;101355.06;;;19.57;83.48
74372;BME280;62885;51.374;6.170;2023-06-22T03:30:51;101350.97;;;19.53;83.40
74372;BME280;62885;51.374;6.170;2023-06-22T03:33:17;101345.47;;;19.45;83.97
74372;BME280;62885;51.374;6.170;2023-06-22T03:35:42;101350.28;;;19.51;83.64
74372;BME280;62885;51.374;6.170;2023-06-22T03:38:08;101348.97;;;19.38;84.25
74372;BME280;62885;51.374;6.170;2023-06-22T03:40:33;101345.69;;;19.34;84.73
74372;BME280;62885;51.374;6.170;2023-06-22T03:42:58;101350.91;;;19.45;83.75
74372;BME280;62885;51.374;6.170;2023-06-22T03:45:24;101348.63;;;19.41;84.34
74372;BME280;62885;51.374;6.170;2023-06-22T03:47:49;101348.88;;;19.47;84.11
74372;BME280;62885;51.374;6.170;2023-06-22T03:50:15;101346.81;;;19.23;84.94
74372;BME280;62885;51.374;6.170;2023-06-22T03:52:40;101352.69;;;19.37;84.54
74372;BME280;62885;51.374;6.170;2023-06-22T03:55:06;101343.59;;;19.28;84.87
74372;BME280;62885;51.374;6.170;2023-06-22T03:57:32;101345.91;;;19.41;84.31
74372;BME280;62885;51.374;6.170;2023-06-22T03:59:58;101349.84;;;19.20;85.31
74372;BME280;62885;51.374;6.170;2023-06-22T04:02:26;101350.81;;;19.37;84.59
74372;BME280;62885;51.374;6.170;2023-06-22T04:04:51;101353.63;;;19.45;84.14
74372;BME280;62885;51.374;6.170;2023-06-22T04:07:17;101348.41;;;19.52;83.62
74372;BME280;62885;51.374;6.170;2023-06-22T04:09:43;101342.31;;;19.50;83.80
74372;BME280;62885;51.374;6.170;2023-06-22T04:12:09;101347.75;;;19.50;83.83
74372;BME280;62885;51.374;6.170;2023-06-22T04:14:34;101340.81;;;19.55;83.28
74372;BME280;62885;51.374;6.170;2023-06-22T04:17:01;101345.25;;;19.56;83.33
74372;BME280;62885;51.374;6.170;2023-06-22T04:19:26;101337.91;;;19.57;83.43
74372;BME280;62885;51.374;6.170;2023-06-22T04:21:52;101333.34;;;19.40;84.18
74372;BME280;62885;51.374;6.170;2023-06-22T04:24:17;101337.38;;;19.53;83.92
74372;BME280;62885;51.374;6.170;2023-06-22T04:26:43;101335.53;;;19.54;83.88
74372;BME280;62885;51.374;6.170;2023-06-22T04:29:11;101331.59;;;19.48;84.20
74372;BME280;62885;51.374;6.170;2023-06-22T04:31:36;101333.16;;;19.51;84.11
74372;BME280;62885;51.374;6.170;2023-06-22T04:34:03;101324.38;;;19.39;84.28
74372;BME280;62885;51.374;6.170;2023-06-22T04:36:40;101328.09;;;19.38;84.72
74372;BME280;62885;51.374;6.170;2023-06-22T04:39:10;101328.41;;;19.35;85.08
74372;BME280;62885;51.374;6.170;2023-06-22T04:41:37;101310.16;;;19.45;84.44
74372;BME280;62885;51.374;6.170;2023-06-22T04:44:13;101320.09;;;19.54;84.07
74372;BME280;62885;51.374;6.170;2023-06-22T04:46:40;101327.91;;;19.57;84.09
74372;BME280;62885;51.374;6.170;2023-06-22T04:51:36;101320.16;;;19.45;84.89
74372;BME280;62885;51.374;6.170;2023-06-22T04:54:03;101329.25;;;19.53;84.30
74372;BME280;62885;51.374;6.170;2023-06-22T04:56:31;101318.38;;;19.53;84.35
74372;BME280;62885;51.374;6.170;2023-06-22T04:58:56;101321.31;;;19.60;84.08
74372;BME280;62885;51.374;6.170;2023-06-22T05:01:22;101323.09;;;19.51;84.19
74372;BME280;62885;51.374;6.170;2023-06-22T05:03:48;101317.97;;;19.66;83.86
74372;BME280;62885;51.374;6.170;2023-06-22T05:06:13;101324.28;;;19.75;83.35
74372;BME280;62885;51.374;6.170;2023-06-22T05:08:39;101323.16;;;19.85;82.75
74372;BME280;62885;51.374;6.170;2023-06-22T05:11:05;101318.59;;;19.86;82.92
74372;BME280;62885;51.374;6.170;2023-06-22T05:13:31;101313.69;;;19.63;84.28
74372;BME280;62885;51.374;6.170;2023-06-22T05:15:56;101320.03;;;19.72;83.85
74372;BME280;62885;51.374;6.170;2023-06-22T05:18:27;101315.47;;;19.81;83.43
74372;BME280;62885;51.374;6.170;2023-06-22T05:20:54;101322.59;;;19.74;83.97
74372;BME280;62885;51.374;6.170;2023-06-22T05:23:20;101332.00;;;19.87;82.92
74372;BME280;62885;51.374;6.170;2023-06-22T05:25:45;101330.03;;;19.97;82.83
74372;BME280;62885;51.374;6.170;2023-06-22T05:28:10;101334.19;;;19.84;83.11
74372;BME280;62885;51.374;6.170;2023-06-22T05:30:37;101330.69;;;19.99;82.74
74372;BME280;62885;51.374;6.170;2023-06-22T05:33:02;101335.63;;;19.96;83.00
74372;BME280;62885;51.374;6.170;2023-06-22T05:35:27;101355.06;;;20.09;82.43
74372;BME280;62885;51.374;6.170;2023-06-22T05:37:54;101357.03;;;19.99;82.81
74372;BME280;62885;51.374;6.170;2023-06-22T05:40:20;101353.88;;;20.12;82.38
74372;BME280;62885;51.374;6.170;2023-06-22T05:42:46;101352.78;;;19.96;83.00
74372;BME280;62885;51.374;6.170;2023-06-22T05:45:11;101353.75;;;19.87;83.24
74372;BME280;62885;51.374;6.170;2023-06-22T05:47:36;101346.78;;;19.85;83.87
74372;BME280;62885;51.374;6.170;2023-06-22T05:50:02;101355.16;;;19.99;83.43
74372;BME280;62885;51.374;6.170;2023-06-22T05:52:32;101343.69;;;20.14;82.35
74372;BME280;62885;51.374;6.170;2023-06-22T05:54:57;101355.59;;;20.13;82.71
74372;BME280;62885;51.374;6.170;2023-06-22T05:57:22;101360.09;;;19.96;83.44
74372;BME280;62885;51.374;6.170;2023-06-22T05:59:48;101358.22;;;19.96;83.61
74372;BME280;62885;51.374;6.170;2023-06-22T06:02:13;101347.78;;;19.84;84.33
74372;BME280;62885;51.374;6.170;2023-06-22T06:04:39;101350.75;;;19.98;84.08
74372;BME280;62885;51.374;6.170;2023-06-22T06:07:04;101351.97;;;20.04;83.43
74372;BME280;62885;51.374;6.170;2023-06-22T06:09:30;101344.66;;;20.04;83.50
74372;BME280;62885;51.374;6.170;2023-06-22T06:11:55;101347.47;;;20.21;83.27
74372;BME280;62885;51.374;6.170;2023-06-22T06:14:21;101347.28;;;20.14;83.29
74372;BME280;62885;51.374;6.170;2023-06-22T06:16:46;101346.06;;;20.17;83.49
74372;BME280;62885;51.374;6.170;2023-06-22T06:19:12;101350.00;;;20.14;84.10
74372;BME280;62885;51.374;6.170;2023-06-22T06:21:37;101352.06;;;20.20;85.09
74372;BME280;62885;51.374;6.170;2023-06-22T06:24:02;101356.38;;;19.97;85.76
74372;BME280;62885;51.374;6.170;2023-06-22T06:26:28;101342.28;;;20.09;85.57
74372;BME280;62885;51.374;6.170;2023-06-22T06:28:56;101348.44;;;20.12;85.48
74372;BME280;62885;51.374;6.170;2023-06-22T06:31:22;101352.78;;;19.96;86.27
74372;BME280;62885;51.374;6.170;2023-06-22T06:33:48;101353.78;;;19.95;87.05
74372;BME280;62885;51.374;6.170;2023-06-22T06:36:13;101347.44;;;20.13;85.90
74372;BME280;62885;51.374;6.170;2023-06-22T06:38:39;101344.50;;;20.06;86.63
74372;BME280;62885;51.374;6.170;2023-06-22T06:41:04;101346.41;;;20.14;86.15
74372;BME280;62885;51.374;6.170;2023-06-22T06:43:30;101345.06;;;20.18;86.67
74372;BME280;62885;51.374;6.170;2023-06-22T06:45:55;101338.47;;;20.28;85.87
74372;BME280;62885;51.374;6.170;2023-06-22T06:48:20;101335.75;;;20.20;85.66
74372;BME280;62885;51.374;6.170;2023-06-22T06:50:46;101323.59;;;20.32;85.35
74372;BME280;62885;51.374;6.170;2023-06-22T06:53:11;101322.22;;;20.36;85.03
74372;BME280;62885;51.374;6.170;2023-06-22T06:55:37;101331.06;;;20.38;84.48
74372;BME280;62885;51.374;6.170;2023-06-22T06:58:03;101328.06;;;20.16;85.54
74372;BME280;62885;51.374;6.170;2023-06-22T07:00:32;101329.75;;;20.17;85.73
74372;BME280;62885;51.374;6.170;2023-06-22T07:02:58;101327.03;;;20.17;85.61
74372;BME280;62885;51.374;6.170;2023-06-22T07:05:23;101325.34;;;20.16;85.98
74372;BME280;62885;51.374;6.170;2023-06-22T07:07:49;101322.66;;;20.24;85.20
74372;BME280;62885;51.374;6.170;2023-06-22T07:10:14;101313.41;;;20.42;84.40
74372;BME280;62885;51.374;6.170;2023-06-22T07:12:40;101314.16;;;20.27;84.86
74372;BME280;62885;51.374;6.170;2023-06-22T07:15:07;101305.75;;;20.38;84.54
74372;BME280;62885;51.374;6.170;2023-06-22T07:17:33;101303.69;;;20.32;84.38
74372;BME280;62885;51.374;6.170;2023-06-22T07:19:59;101298.41;;;20.38;84.36
74372;BME280;62885;51.374;6.170;2023-06-22T07:22:24;101301.53;;;20.52;83.80
74372;BME280;62885;51.374;6.170;2023-06-22T07:24:50;101303.03;;;20.46;83.71
74372;BME280;62885;51.374;6.170;2023-06-22T07:27:15;101303.38;;;20.43;84.01
74372;BME280;62885;51.374;6.170;2023-06-22T07:29:44;101312.94;;;20.55;83.27
74372;BME280;62885;51.374;6.170;2023-06-22T07:32:09;101305.63;;;20.64;83.32
74372;BME280;62885;51.374;6.170;2023-06-22T07:34:35;101310.25;;;20.71;82.68
74372;BME280;62885;51.374;6.170;2023-06-22T07:37:00;101306.31;;;20.74;82.22
74372;BME280;62885;51.374;6.170;2023-06-22T07:39:26;101302.75;;;20.65;82.43
74372;BME280;62885;51.374;6.170;2023-06-22T07:41:52;101292.72;;;20.82;81.71
74372;BME280;62885;51.374;6.170;2023-06-22T07:44:17;101282.88;;;20.89;81.56
74372;BME280;62885;51.374;6.170;2023-06-22T07:46:43;101287.66;;;20.95;80.86
74372;BME280;62885;51.374;6.170;2023-06-22T07:49:08;101280.50;;;21.10;79.99
74372;BME280;62885;51.374;6.170;2023-06-22T07:51:34;101280.16;;;21.21;79.42
74372;BME280;62885;51.374;6.170;2023-06-22T07:53:59;101274.72;;;21.13;79.76
74372;BME280;62885;51.374;6.170;2023-06-22T07:56:25;101274.06;;;21.19;79.53
74372;BME280;62885;51.374;6.170;2023-06-22T07:58:50;101267.06;;;21.25;79.12
74372;BME280;62885;51.374;6.170;2023-06-22T08:01:16;101258.53;;;21.36;79.30
74372;BME280;62885;51.374;6.170;2023-06-22T08:03:42;101259.19;;;21.38;78.52
74372;BME280;62885;51.374;6.170;2023-06-22T08:06:08;101257.84;;;21.26;78.69
74372;BME280;62885;51.374;6.170;2023-06-22T08:08:35;101249.84;;;21.33;78.48
74372;BME280;62885;51.374;6.170;2023-06-22T08:11:00;101240.81;;;21.32;78.58
74372;BME280;62885;51.374;6.170;2023-06-22T08:13:25;101236.22;;;21.41;77.91
74372;BME280;62885;51.374;6.170;2023-06-22T08:15:51;101235.03;;;21.43;77.49
74372;BME280;62885;51.374;6.170;2023-06-22T08:18:16;101222.06;;;21.53;77.51
74372;BME280;62885;51.374;6.170;2023-06-22T08:20:42;101224.88;;;21.68;76.69
74372;BME280;62885;51.374;6.170;2023-06-22T08:23:07;101215.75;;;21.53;76.77
74372;BME280;62885;51.374;6.170;2023-06-22T08:25:34;101204.44;;;21.72;76.26
74372;BME280;62885;51.374;6.170;2023-06-22T08:28:00;101211.19;;;21.84;75.80
74372;BME280;62885;51.374;6.170;2023-06-22T08:30:27;101212.72;;;21.95;75.23
74372;BME280;62885;51.374;6.170;2023-06-22T08:32:52;101200.78;;;21.88;75.32
74372;BME280;62885;51.374;6.170;2023-06-22T08:35:18;101202.66;;;21.95;74.15
74372;BME280;62885;51.374;6.170;2023-06-22T08:37:44;101203.28;;;22.05;74.52
74372;BME280;62885;51.374;6.170;2023-06-22T08:40:15;101192.84;;;22.09;74.32
74372;BME280;62885;51.374;6.170;2023-06-22T08:42:41;101196.59;;;22.08;74.55
74372;BME280;62885;51.374;6.170;2023-06-22T08:45:07;101201.00;;;22.17;73.40
74372;BME280;62885;51.374;6.170;2023-06-22T08:47:32;101191.72;;;22.26;73.10
74372;BME280;62885;51.374;6.170;2023-06-22T08:49:58;101193.91;;;22.31;72.51
74372;BME280;62885;51.374;6.170;2023-06-22T08:52:24;101206.94;;;22.43;72.28
74372;BME280;62885;51.374;6.170;2023-06-22T08:54:49;101202.00;;;22.47;71.69
74372;BME280;62885;51.374;6.170;2023-06-22T08:57:15;101194.47;;;22.49;71.65
74372;BME280;62885;51.374;6.170;2023-06-22T08:59:41;101201.75;;;22.57;71.50
74372;BME280;62885;51.374;6.170;2023-06-22T09:02:07;101211.34;;;22.52;71.21
74372;BME280;62885;51.374;6.170;2023-06-22T09:04:32;101201.63;;;22.50;71.51
74372;BME280;62885;51.374;6.170;2023-06-22T09:07:00;101200.16;;;22.62;71.74
74372;BME280;62885;51.374;6.170;2023-06-22T09:09:26;101192.44;;;22.66;71.68
74372;BME280;62885;51.374;6.170;2023-06-22T09:11:51;101195.72;;;22.61;71.93
74372;BME280;62885;51.374;6.170;2023-06-22T09:14:17;101201.91;;;22.55;72.17
74372;BME280;62885;51.374;6.170;2023-06-22T09:16:42;101186.66;;;22.46;72.02
74372;BME280;62885;51.374;6.170;2023-06-22T09:19:08;101187.19;;;22.64;72.03
74372;BME280;62885;51.374;6.170;2023-06-22T09:21:33;101196.88;;;22.67;71.80
74372;BME280;62885;51.374;6.170;2023-06-22T09:23:58;101193.63;;;22.71;71.75
74372;BME280;62885;51.374;6.170;2023-06-22T09:26:24;101185.84;;;22.60;72.19
74372;BME280;62885;51.374;6.170;2023-06-22T09:28:49;101200.28;;;22.69;72.41
74372;BME280;62885;51.374;6.170;2023-06-22T09:31:15;101191.91;;;22.70;72.65
74372;BME280;62885;51.374;6.170;2023-06-22T09:33:42;101198.16;;;22.56;73.58
74372;BME280;62885;51.374;6.170;2023-06-22T09:36:07;101206.44;;;22.48;74.18
74372;BME280;62885;51.374;6.170;2023-06-22T09:38:39;101211.13;;;22.54;73.84
74372;BME280;62885;51.374;6.170;2023-06-22T09:41:04;101207.88;;;22.59;73.89
74372;BME280;62885;51.374;6.170;2023-06-22T09:43:32;101200.84;;;22.64;74.19
74372;BME280;62885;51.374;6.170;2023-06-22T09:45:57;101198.28;;;22.63;74.06
74372;BME280;62885;51.374;6.170;2023-06-22T09:48:23;101189.41;;;22.61;74.56
74372;BME280;62885;51.374;6.170;2023-06-22T09:50:48;101190.06;;;22.48;75.33
74372;BME280;62885;51.374;6.170;2023-06-22T09:53:14;101183.00;;;22.53;75.39
74372;BME280;62885;51.374;6.170;2023-06-22T09:55:39;101181.50;;;22.51;75.02
74372;BME280;62885;51.374;6.170;2023-06-22T09:58:05;101183.91;;;22.46;75.90
74372;BME280;62885;51.374;6.170;2023-06-22T10:00:30;101178.94;;;22.49;75.66
74372;BME280;62885;51.374;6.170;2023-06-22T10:02:55;101177.47;;;22.39;76.35
74372;BME280;62885;51.374;6.170;2023-06-22T10:05:21;101168.63;;;22.37;75.94
74372;BME280;62885;51.374;6.170;2023-06-22T10:07:47;101164.81;;;22.46;76.42
74372;BME280;62885;51.374;6.170;2023-06-22T10:10:13;101174.50;;;22.48;75.70
74372;BME280;62885;51.374;6.170;2023-06-22T10:12:44;101169.00;;;22.57;75.66
74372;BME280;62885;51.374;6.170;2023-06-22T10:15:10;101182.19;;;22.68;75.50
74372;BME280;62885;51.374;6.170;2023-06-22T10:17:36;101179.00;;;22.64;75.21
74372;BME280;62885;51.374;6.170;2023-06-22T10:20:02;101182.38;;;22.66;75.16
74372;BME280;62885;51.374;6.170;2023-06-22T10:22:37;101182.94;;;22.84;74.47
74372;BME280;62885;51.374;6.170;2023-06-22T10:25:03;101180.16;;;22.70;74.46
74372;BME280;62885;51.374;6.170;2023-06-22T10:27:28;101194.53;;;22.86;73.94
74372;BME280;62885;51.374;6.170;2023-06-22T10:29:54;101198.56;;;22.76;74.41
74372;BME280;62885;51.374;6.170;2023-06-22T10:32:19;101196.00;;;22.74;74.36
74372;BME280;62885;51.374;6.170;2023-06-22T10:34:45;101201.00;;;22.63;74.27
74372;BME280;62885;51.374;6.170;2023-06-22T10:37:10;101207.50;;;22.62;74.52
74372;BME280;62885;51.374;6.170;2023-06-22T10:39:36;101206.59;;;22.69;74.06
74372;BME280;62885;51.374;6.170;2023-06-22T10:42:01;101220.88;;;22.79;73.95
74372;BME280;62885;51.374;6.170;2023-06-22T10:44:26;101219.00;;;22.80;74.00
74372;BME280;62885;51.374;6.170;2023-06-22T10:46:52;101219.09;;;22.64;73.88
74372;BME280;62885;51.374;6.170;2023-06-22T10:49:17;101210.72;;;22.65;74.14
74372;BME280;62885;51.374;6.170;2023-06-22T10:51:42;101201.63;;;22.73;74.29
74372;BME280;62885;51.374;6.170;2023-06-22T10:54:08;101211.22;;;22.69;74.63
74372;BME280;62885;51.374;6.170;2023-06-22T10:56:33;101204.78;;;22.62;74.60
74372;BME280;62885;51.374;6.170;2023-06-22T10:58:59;101207.59;;;22.53;74.86
74372;BME280;62885;51.374;6.170;2023-06-22T11:01:24;101213.69;;;22.56;75.80
74372;BME280;62885;51.374;6.170;2023-06-22T11:03:49;101212.50;;;22.58;76.92
74372;BME280;62885;51.374;6.170;2023-06-22T11:06:15;101209.94;;;22.57;77.50
74372;BME280;62885;51.374;6.170;2023-06-22T11:08:44;101207.88;;;22.59;77.71
74372;BME280;62885;51.374;6.170;2023-06-22T11:11:09;101204.94;;;22.37;78.85
74372;BME280;62885;51.374;6.170;2023-06-22T11:13:34;101206.91;;;22.51;78.79
74372;BME280;62885;51.374;6.170;2023-06-22T11:16:00;101197.06;;;22.42;78.77
74372;BME280;62885;51.374;6.170;2023-06-22T11:18:25;101197.69;;;22.52;79.57
74372;BME280;62885;51.374;6.170;2023-06-22T11:20:51;101194.03;;;22.60;78.78
74372;BME280;62885;51.374;6.170;2023-06-22T11:23:16;101180.88;;;22.64;80.52
74372;BME280;62885;51.374;6.170;2023-06-22T11:25:41;101181.53;;;22.66;80.69
74372;BME280;62885;51.374;6.170;2023-06-22T11:28:07;101180.81;;;22.49;80.77
74372;BME280;62885;51.374;6.170;2023-06-22T11:30:33;101170.03;;;22.33;83.25
74372;BME280;62885;51.374;6.170;2023-06-22T11:32:59;101160.09;;;22.17;84.53
74372;BME280;62885;51.374;6.170;2023-06-22T11:35:25;101158.81;;;22.05;84.99
74372;BME280;62885;51.374;6.170;2023-06-22T11:37:51;101150.50;;;21.90;86.26
74372;BME280;62885;51.374;6.170;2023-06-22T11:40:16;101133.50;;;21.80;86.98
74372;BME280;62885;51.374;6.170;2023-06-22T11:42:43;101109.69;;;21.74;88.96
74372;BME280;62885;51.374;6.170;2023-06-22T11:45:10;101092.16;;;21.77;90.90
74372;BME280;62885;51.374;6.170;2023-06-22T11:47:36;101080.22;;;21.78;91.96
74372;BME280;62885;51.374;6.170;2023-06-22T11:50:02;101095.34;;;21.80;92.91
74372;BME280;62885;51.374;6.170;2023-06-22T11:52:28;101103.69;;;21.79;92.58
74372;BME280;62885;51.374;6.170;2023-06-22T11:54:53;101100.66;;;21.73;93.61
74372;BME280;62885;51.374;6.170;2023-06-22T11:57:18;101100.94;;;21.56;94.13
74372;BME280;62885;51.374;6.170;2023-06-22T11:59:44;101093.44;;;21.58;96.54
74372;BME280;62885;51.374;6.170;2023-06-22T12:02:09;101094.75;;;21.70;97.06
74372;BME280;62885;51.374;6.170;2023-06-22T12:04:37;101096.38;;;21.79;96.05
74372;BME280;62885;51.374;6.170;2023-06-22T12:07:03;101103.31;;;21.90;96.49
74372;BME280;62885;51.374;6.170;2023-06-22T12:09:28;101107.72;;;21.99;97.67
74372;BME280;62885;51.374;6.170;2023-06-22T12:11:54;101100.22;;;21.93;95.63
74372;BME280;62885;51.374;6.170;2023-06-22T12:14:19;101102.63;;;22.19;96.53
74372;BME280;62885;51.374;6.170;2023-06-22T12:16:44;101102.66;;;22.33;93.82
74372;BME280;62885;51.374;6.170;2023-06-22T12:19:11;101088.72;;;22.28;94.92
74372;BME280;62885;51.374;6.170;2023-06-22T12:21:37;101089.19;;;22.32;94.77
74372;BME280;62885;51.374;6.170;2023-06-22T12:24:03;101082.00;;;22.16;93.55
74372;BME280;62885;51.374;6.170;2023-06-22T12:26:28;101078.47;;;22.07;94.41
74372;BME280;62885;51.374;6.170;2023-06-22T12:28:53;101073.16;;;22.14;94.47
74372;BME280;62885;51.374;6.170;2023-06-22T12:31:19;101064.63;;;22.17;92.35
74372;BME280;62885;51.374;6.170;2023-06-22T12:33:44;101067.16;;;22.19;93.31
74372;BME280;62885;51.374;6.170;2023-06-22T12:36:10;101083.72;;;22.17;92.27
74372;BME280;62885;51.374;6.170;2023-06-22T12:38:35;101089.94;;;22.03;93.83
74372;BME280;62885;51.374;6.170;2023-06-22T12:41:00;101069.66;;;21.75;94.41
74372;BME280;62885;51.374;6.170;2023-06-22T12:43:26;101061.38;;;21.91;93.63
74372;BME280;62885;51.374;6.170;2023-06-22T12:45:51;101065.47;;;21.64;94.60
74372;BME280;62885;51.374;6.170;2023-06-22T12:48:18;101067.34;;;21.63;94.67
74372;BME280;62885;51.374;6.170;2023-06-22T12:50:44;101053.91;;;21.85;93.60
74372;BME280;62885;51.374;6.170;2023-06-22T12:53:09;101056.25;;;21.96;93.59
74372;BME280;62885;51.374;6.170;2023-06-22T12:55:34;101060.47;;;22.21;92.42
74372;BME280;62885;51.374;6.170;2023-06-22T12:58:00;101060.00;;;22.18;91.16